createdAt,value
2024-02-06T00:01:34.163Z,9.60
2024-02-06T00:04:01.657Z,9.50
2024-02-06T00:06:28.970Z,9.60
2024-02-06T00:08:56.249Z,9.50
2024-02-06T00:11:24.266Z,9.50
2024-02-06T00:13:51.814Z,9.50
2024-02-06T00:16:20.452Z,9.60
2024-02-06T00:18:47.776Z,9.50
2024-02-06T00:21:15.486Z,9.50
2024-02-06T00:23:42.938Z,9.50
2024-02-06T00:26:10.377Z,9.50
2024-02-06T00:28:38.312Z,9.50
2024-02-06T00:31:05.688Z,9.50
2024-02-06T00:33:34.354Z,9.50
2024-02-06T00:36:02.512Z,9.50
2024-02-06T00:38:29.947Z,9.50
2024-02-06T00:40:57.571Z,9.40
2024-02-06T00:43:24.933Z,9.40
2024-02-06T00:45:52.393Z,9.40
2024-02-06T00:48:19.813Z,9.40
2024-02-06T00:50:48.670Z,9.40
2024-02-06T00:53:16.261Z,9.40
2024-02-06T00:55:43.565Z,9.40
2024-02-06T00:58:10.968Z,9.40
2024-02-06T01:00:38.324Z,9.40
2024-02-06T01:03:05.854Z,9.40
2024-02-06T01:05:33.148Z,9.40
2024-02-06T01:08:01.847Z,9.40
2024-02-06T01:10:29.279Z,9.40
2024-02-06T01:12:56.664Z,9.40
2024-02-06T01:15:23.988Z,9.50
2024-02-06T01:17:51.307Z,9.50
2024-02-06T01:20:18.670Z,9.50
2024-02-06T01:22:46.000Z,9.50
2024-02-06T01:25:14.810Z,9.60
2024-02-06T01:27:42.972Z,9.50
2024-02-06T01:30:11.101Z,9.50
2024-02-06T01:32:38.439Z,9.50
2024-02-06T01:35:07.057Z,9.40
2024-02-06T01:37:34.508Z,9.50
2024-02-06T01:40:01.866Z,9.40
2024-02-06T01:42:30.491Z,9.40
2024-02-06T01:44:57.772Z,9.40
2024-02-06T01:47:25.511Z,9.40
2024-02-06T01:49:53.008Z,9.30
2024-02-06T01:52:20.964Z,9.30
2024-02-06T01:54:48.598Z,9.30
2024-02-06T01:57:15.964Z,9.30
2024-02-06T01:59:44.867Z,9.30
2024-02-06T02:02:12.756Z,9.30
2024-02-06T02:04:40.382Z,9.30
2024-02-06T02:07:08.624Z,9.30
2024-02-06T02:09:36.015Z,9.20
2024-02-06T02:12:03.530Z,9.20
2024-02-06T02:14:30.838Z,9.20
2024-02-06T02:16:59.426Z,9.20
2024-02-06T02:19:26.966Z,9.20
2024-02-06T02:21:55.694Z,9.20
2024-02-06T02:24:23.763Z,9.10
2024-02-06T02:26:51.397Z,9.10
2024-02-06T02:29:19.380Z,9.10
2024-02-06T02:31:47.963Z,9.00
2024-02-06T02:34:16.174Z,9.00
2024-02-06T02:36:43.707Z,9.00
2024-02-06T02:39:12.380Z,9.00
2024-02-06T02:41:39.633Z,8.90
2024-02-06T02:44:07.420Z,9.00
2024-02-06T02:46:34.913Z,9.00
2024-02-06T02:49:02.387Z,9.00
2024-02-06T02:51:29.788Z,9.00
2024-02-06T02:53:57.060Z,9.00
2024-02-06T02:56:25.702Z,8.90
2024-02-06T02:58:52.981Z,8.90
2024-02-06T03:01:20.379Z,8.90
2024-02-06T03:03:47.928Z,8.90
2024-02-06T03:06:19.513Z,8.90
2024-02-06T03:08:47.149Z,9.00
2024-02-06T03:11:14.512Z,8.90
2024-02-06T03:13:43.749Z,8.90
2024-02-06T03:16:11.126Z,8.90
2024-02-06T03:18:38.959Z,8.90
2024-02-06T03:21:06.402Z,8.80
2024-02-06T03:23:33.682Z,8.80
2024-02-06T03:26:00.939Z,8.80
2024-02-06T03:28:28.315Z,8.80
2024-02-06T03:30:57.029Z,8.80
2024-02-06T03:33:24.413Z,8.90
2024-02-06T03:35:52.581Z,8.80
2024-02-06T03:38:20.644Z,8.80
2024-02-06T03:40:47.993Z,8.80
2024-02-06T03:43:15.282Z,8.90
2024-02-06T03:45:42.770Z,8.90
2024-02-06T03:48:12.165Z,8.90
2024-02-06T03:50:39.583Z,8.90
2024-02-06T03:53:07.066Z,8.90
2024-02-06T03:55:34.399Z,8.90
2024-02-06T03:58:01.831Z,8.90
2024-02-06T04:00:29.125Z,8.90
2024-02-06T04:02:56.474Z,8.90
2024-02-06T04:05:25.565Z,8.90
2024-02-06T04:07:53.515Z,8.80
2024-02-06T04:10:21.490Z,8.90
2024-02-06T04:12:48.797Z,8.90
2024-02-06T04:15:16.096Z,8.90
2024-02-06T04:17:43.397Z,8.90
2024-02-06T04:20:12.190Z,8.90
2024-02-06T04:22:40.911Z,8.90
2024-02-06T04:25:08.856Z,8.90
2024-02-06T04:27:36.183Z,8.90
2024-02-06T04:30:03.847Z,8.90
2024-02-06T04:32:31.254Z,8.90
2024-02-06T04:34:58.582Z,8.90
2024-02-06T04:37:25.950Z,9.00
2024-02-06T04:39:54.671Z,8.90
2024-02-06T04:42:22.045Z,8.90
2024-02-06T04:44:49.310Z,8.90
2024-02-06T04:47:16.540Z,9.00
2024-02-06T04:49:44.070Z,8.90
2024-02-06T04:52:11.494Z,8.90
2024-02-06T04:54:38.819Z,9.00
2024-02-06T04:57:07.499Z,9.00
2024-02-06T04:59:34.814Z,9.00
2024-02-06T05:02:02.219Z,9.00
2024-02-06T05:04:29.667Z,9.00
2024-02-06T05:06:57.066Z,9.00
2024-02-06T05:09:24.430Z,9.00
2024-02-06T05:11:52.189Z,9.00
2024-02-06T05:14:20.802Z,9.00
2024-02-06T05:16:48.067Z,9.00
2024-02-06T05:19:15.776Z,9.00
2024-02-06T05:21:43.170Z,9.00
2024-02-06T05:24:10.521Z,9.00
2024-02-06T05:26:38.255Z,9.00
2024-02-06T05:29:06.680Z,9.00
2024-02-06T05:31:35.435Z,9.00
2024-02-06T05:34:02.952Z,9.00
2024-02-06T05:36:30.332Z,9.00
2024-02-06T05:38:57.588Z,9.00
2024-02-06T05:41:24.942Z,9.00
2024-02-06T05:43:53.183Z,9.00
2024-02-06T05:46:21.689Z,9.00
2024-02-06T05:48:50.468Z,9.00
2024-02-06T05:51:17.896Z,9.00
2024-02-06T05:53:46.783Z,9.00
2024-02-06T05:56:16.174Z,9.00
2024-02-06T05:58:43.773Z,9.00
2024-02-06T06:01:11.241Z,9.00
2024-02-06T06:03:38.661Z,9.00
2024-02-06T06:06:07.934Z,9.10
2024-02-06T06:08:35.309Z,9.10
2024-02-06T06:11:02.672Z,9.10
2024-02-06T06:13:30.125Z,9.10
2024-02-06T06:15:58.884Z,9.10
2024-02-06T06:18:26.358Z,9.10
2024-02-06T06:20:53.663Z,9.10
2024-02-06T06:23:22.281Z,9.10
2024-02-06T06:25:49.939Z,9.10
2024-02-06T06:28:17.336Z,9.10
2024-02-06T06:30:44.723Z,9.10
2024-02-06T06:33:12.164Z,9.10
2024-02-06T06:35:39.516Z,9.10
2024-02-06T06:38:06.789Z,9.10
2024-02-06T06:40:35.499Z,9.20
2024-02-06T06:43:02.940Z,9.20
2024-02-06T06:45:30.292Z,9.30
2024-02-06T06:47:57.590Z,9.20
2024-02-06T06:50:25.067Z,9.30
2024-02-06T06:52:52.393Z,9.30
2024-02-06T06:55:20.333Z,9.30
2024-02-06T06:57:49.347Z,9.30
2024-02-06T07:00:17.430Z,9.30
2024-02-06T07:02:44.867Z,9.30
2024-02-06T07:05:12.334Z,9.30
2024-02-06T07:07:40.023Z,9.30
2024-02-06T07:10:08.348Z,9.30
2024-02-06T07:12:35.678Z,9.30
2024-02-06T07:15:05.167Z,9.30
2024-02-06T07:17:32.569Z,9.30
2024-02-06T07:19:59.957Z,9.30
2024-02-06T07:22:27.682Z,9.30
2024-02-06T07:24:55.019Z,9.30
2024-02-06T07:27:22.478Z,9.40
2024-02-06T07:29:50.862Z,9.40
2024-02-06T07:32:19.561Z,9.40
2024-02-06T07:34:46.924Z,9.40
2024-02-06T07:37:14.343Z,9.40
2024-02-06T07:39:41.664Z,9.40
2024-02-06T07:42:09.060Z,9.40
2024-02-06T07:44:36.433Z,9.40
2024-02-06T07:47:04.211Z,9.40
2024-02-06T07:49:33.380Z,9.40
2024-02-06T07:52:01.100Z,9.40
2024-02-06T07:54:28.551Z,9.50
2024-02-06T07:56:55.901Z,9.50
2024-02-06T07:59:23.378Z,9.50
2024-02-06T08:01:50.760Z,9.50
2024-02-06T08:04:18.237Z,9.50
2024-02-06T08:06:47.178Z,9.60
2024-02-06T08:09:14.899Z,9.60
2024-02-06T08:11:42.189Z,9.60
2024-02-06T08:14:12.640Z,9.60
2024-02-06T08:16:40.137Z,9.60
2024-02-06T08:19:07.608Z,9.60
2024-02-06T08:21:34.969Z,9.60
2024-02-06T08:24:03.925Z,9.70
2024-02-06T08:26:31.333Z,9.70
2024-02-06T08:28:58.622Z,9.70
2024-02-06T08:31:26.450Z,9.80
2024-02-06T08:33:53.747Z,9.80
2024-02-06T08:36:21.147Z,9.80
2024-02-06T08:38:48.920Z,9.80
2024-02-06T08:41:17.662Z,9.70
2024-02-06T08:43:52.796Z,9.80
2024-02-06T08:46:23.790Z,9.80
2024-02-06T08:48:51.275Z,9.80
2024-02-06T08:51:19.482Z,9.90
2024-02-06T08:53:46.820Z,9.90
2024-02-06T08:56:16.398Z,9.90
2024-02-06T08:58:45.066Z,9.90
2024-02-06T09:01:13.493Z,10.00
2024-02-06T09:03:41.040Z,10.00
2024-02-06T09:06:08.798Z,10.00
2024-02-06T09:08:36.941Z,10.00
2024-02-06T09:11:05.499Z,10.00
2024-02-06T09:13:33.026Z,10.00
2024-02-06T09:16:02.857Z,10.00
2024-02-06T09:18:30.898Z,10.00
2024-02-06T09:20:58.301Z,10.10
2024-02-06T09:23:25.671Z,10.10
2024-02-06T09:25:52.990Z,10.20
2024-02-06T09:28:20.358Z,10.20
2024-02-06T09:30:48.141Z,10.20
2024-02-06T09:33:16.850Z,10.20
2024-02-06T09:35:44.223Z,10.20
2024-02-06T09:38:11.764Z,10.20
2024-02-06T09:40:42.765Z,10.20
2024-02-06T09:43:11.760Z,10.30
2024-02-06T09:45:39.405Z,10.30
2024-02-06T09:48:08.081Z,10.20
2024-02-06T09:50:36.761Z,10.30
2024-02-06T09:53:05.970Z,10.30
2024-02-06T09:55:33.327Z,10.30
2024-02-06T09:58:01.186Z,10.40
2024-02-06T10:00:28.913Z,10.40
2024-02-06T10:02:58.508Z,10.50
2024-02-06T10:05:28.200Z,10.50
2024-02-06T10:07:57.645Z,10.50
2024-02-06T10:10:25.547Z,10.50
2024-02-06T10:12:53.251Z,10.50
2024-02-06T10:15:27.162Z,10.50
2024-02-06T10:17:56.957Z,10.60
2024-02-06T10:20:24.391Z,10.60
2024-02-06T10:22:51.786Z,10.60
2024-02-06T10:25:20.703Z,10.60
2024-02-06T10:27:56.685Z,10.70
2024-02-06T10:30:24.765Z,10.70
2024-02-06T10:32:53.070Z,10.70
2024-02-06T10:35:23.223Z,10.80
2024-02-06T10:37:50.955Z,10.90
2024-02-06T10:40:24.053Z,10.90
2024-02-06T10:43:25.873Z,10.80
2024-02-06T10:45:39.262Z,10.90
2024-02-06T10:48:07.625Z,10.80
2024-02-06T10:50:35.266Z,10.90
2024-02-06T10:53:06.085Z,10.90
2024-02-06T10:55:35.300Z,10.90
2024-02-06T10:58:07.347Z,10.90
2024-02-06T11:00:36.901Z,10.90
2024-02-06T11:03:09.100Z,10.90
2024-02-06T11:05:44.670Z,10.90
2024-02-06T11:08:16.218Z,10.90
2024-02-06T11:10:46.817Z,10.90
2024-02-06T11:13:23.245Z,10.90
2024-02-06T11:15:53.010Z,10.90
2024-02-06T11:18:22.617Z,10.80
2024-02-06T11:20:52.709Z,10.90
2024-02-06T11:23:21.132Z,10.90
2024-02-06T11:25:52.806Z,10.90
2024-02-06T11:28:21.022Z,10.90
2024-02-06T11:30:49.696Z,10.90
2024-02-06T11:33:20.266Z,10.90
2024-02-06T11:35:47.805Z,10.90
2024-02-06T11:38:25.685Z,10.90
2024-02-06T11:40:54.351Z,10.90
2024-02-06T11:43:26.855Z,10.90
2024-02-06T11:46:00.589Z,10.90
2024-02-06T11:48:28.331Z,10.80
2024-02-06T11:50:55.844Z,10.90
2024-02-06T11:53:26.259Z,10.80
2024-02-06T11:55:58.739Z,10.90
2024-02-06T11:58:27.084Z,10.90
2024-02-06T12:00:56.227Z,10.90
2024-02-06T12:03:23.892Z,10.90
2024-02-06T12:05:51.532Z,10.90
2024-02-06T12:08:22.214Z,11.00
2024-02-06T12:10:50.853Z,11.00
2024-02-06T12:13:22.940Z,11.00
2024-02-06T12:15:51.004Z,11.00
2024-02-06T12:18:19.443Z,11.10
2024-02-06T12:20:48.880Z,11.20
2024-02-06T12:23:16.231Z,11.10
2024-02-06T12:25:43.901Z,11.20
2024-02-06T12:28:17.042Z,11.20
2024-02-06T12:30:50.104Z,11.20
2024-02-06T12:33:17.826Z,11.30
2024-02-06T12:35:45.859Z,11.20
2024-02-06T12:38:14.052Z,11.30
2024-02-06T12:40:44.387Z,11.30
2024-02-06T12:43:13.767Z,11.40
2024-02-06T12:45:42.936Z,11.40
2024-02-06T12:48:13.083Z,11.30
2024-02-06T12:50:42.649Z,11.30
2024-02-06T12:53:10.273Z,11.30
2024-02-06T12:55:40.944Z,11.40
2024-02-06T12:58:08.729Z,11.40
2024-02-06T13:00:36.413Z,11.40
2024-02-06T13:03:05.146Z,11.30
2024-02-06T13:05:36.082Z,11.30
2024-02-06T13:08:05.796Z,11.30
2024-02-06T13:10:36.093Z,11.30
2024-02-06T13:13:07.323Z,11.30
2024-02-06T13:15:36.014Z,11.30
2024-02-06T13:18:05.730Z,11.30
2024-02-06T13:20:39.736Z,11.30
2024-02-06T13:23:11.280Z,11.40
2024-02-06T13:25:39.217Z,11.40
2024-02-06T13:28:07.723Z,11.40
2024-02-06T13:30:37.053Z,11.30
2024-02-06T13:33:05.836Z,11.40
2024-02-06T13:35:34.725Z,11.40
2024-02-06T13:38:02.915Z,11.40
2024-02-06T13:40:30.796Z,11.40
2024-02-06T13:42:59.658Z,11.40
2024-02-06T13:45:27.282Z,11.40
2024-02-06T13:47:54.886Z,11.40
2024-02-06T13:50:23.050Z,11.40
2024-02-06T13:52:52.061Z,11.40
2024-02-06T13:55:19.939Z,11.40
2024-02-06T13:57:47.433Z,11.40
2024-02-06T14:00:15.864Z,11.30
2024-02-06T14:02:43.892Z,11.30
2024-02-06T14:05:12.090Z,11.30
2024-02-06T14:07:40.034Z,11.30
2024-02-06T14:10:09.516Z,11.30
2024-02-06T14:12:44.527Z,11.30
2024-02-06T14:15:17.510Z,11.30
2024-02-06T14:17:46.337Z,11.30
2024-02-06T14:20:16.182Z,11.30
2024-02-06T14:22:44.164Z,11.30
2024-02-06T14:25:13.072Z,11.30
2024-02-06T14:27:40.456Z,11.30
2024-02-06T14:30:08.965Z,11.30
2024-02-06T14:32:36.621Z,11.30
2024-02-06T14:35:05.228Z,11.20
2024-02-06T14:37:32.771Z,11.30
2024-02-06T14:40:00.636Z,11.20
2024-02-06T14:42:29.334Z,11.30
2024-02-06T14:44:57.030Z,11.30
2024-02-06T14:47:24.281Z,11.30
2024-02-06T14:49:51.848Z,11.30
2024-02-06T14:52:20.276Z,11.30
2024-02-06T14:54:47.601Z,11.30
2024-02-06T14:57:15.221Z,11.30
2024-02-06T14:59:43.828Z,11.30
2024-02-06T15:02:12.656Z,11.30
2024-02-06T15:04:40.217Z,11.30
2024-02-06T15:07:07.937Z,11.30
2024-02-06T15:09:37.419Z,11.30
2024-02-06T15:12:05.226Z,11.30
2024-02-06T15:14:32.609Z,11.30
2024-02-06T15:17:01.330Z,11.30
2024-02-06T15:19:28.775Z,11.30
2024-02-06T15:21:56.152Z,11.30
2024-02-06T15:24:25.312Z,11.30
2024-02-06T15:26:57.564Z,11.40
2024-02-06T15:29:24.994Z,11.40
2024-02-06T15:31:52.366Z,11.40
2024-02-06T15:34:21.398Z,11.40
2024-02-06T15:36:49.145Z,11.40
2024-02-06T15:39:16.748Z,11.40
2024-02-06T15:41:44.433Z,11.40
2024-02-06T15:44:14.337Z,11.40
2024-02-06T15:46:43.378Z,11.40
2024-02-06T15:49:10.864Z,11.40
2024-02-06T15:51:39.593Z,11.30
2024-02-06T15:54:08.322Z,11.30
2024-02-06T15:56:36.243Z,11.40
2024-02-06T15:59:04.789Z,11.40
2024-02-06T16:01:32.428Z,11.40
2024-02-06T16:04:00.129Z,11.30
2024-02-06T16:06:27.581Z,11.40
2024-02-06T16:08:56.327Z,11.40
2024-02-06T16:11:23.669Z,11.40
2024-02-06T16:13:51.689Z,11.30
2024-02-06T16:16:20.855Z,11.30
2024-02-06T16:18:48.767Z,11.30
2024-02-06T16:21:16.404Z,11.30
2024-02-06T16:23:44.437Z,11.30
2024-02-06T16:26:13.609Z,11.30
2024-02-06T16:28:41.498Z,11.30
2024-02-06T16:31:09.472Z,11.20
2024-02-06T16:33:37.137Z,11.30
2024-02-06T16:36:11.181Z,11.30
2024-02-06T16:38:38.477Z,11.30
2024-02-06T16:41:05.850Z,11.30
2024-02-06T16:43:34.624Z,11.30
2024-02-06T16:46:01.968Z,11.30
2024-02-06T16:48:30.416Z,11.30
2024-02-06T16:50:58.320Z,11.30
2024-02-06T16:53:27.114Z,11.30
2024-02-06T16:55:54.501Z,11.40
2024-02-06T16:58:21.864Z,11.40
2024-02-06T17:00:50.563Z,11.40
2024-02-06T17:03:17.907Z,11.40
2024-02-06T17:05:45.923Z,11.40
2024-02-06T17:08:13.508Z,11.30
2024-02-06T17:10:40.870Z,11.30
2024-02-06T17:13:08.606Z,11.30
2024-02-06T17:15:35.942Z,11.30
2024-02-06T17:18:05.174Z,11.20
2024-02-06T17:20:32.619Z,11.20
2024-02-06T17:22:59.954Z,11.20
2024-02-06T17:25:28.504Z,11.20
2024-02-06T17:27:55.971Z,11.20
2024-02-06T17:30:23.366Z,11.20
2024-02-06T17:32:50.753Z,11.20
2024-02-06T17:35:19.814Z,11.20
2024-02-06T17:37:47.356Z,11.30
2024-02-06T17:40:15.239Z,11.30
2024-02-06T17:42:42.618Z,11.20
2024-02-06T17:45:10.287Z,11.10
2024-02-06T17:47:37.592Z,11.10
2024-02-06T17:50:05.979Z,11.10
2024-02-06T17:52:34.724Z,11.10
2024-02-06T17:55:02.201Z,11.00
2024-02-06T17:57:29.502Z,11.10
2024-02-06T17:59:58.632Z,11.00
2024-02-06T18:02:38.092Z,11.10
2024-02-06T18:05:13.371Z,11.00
2024-02-06T18:07:42.111Z,11.00
2024-02-06T18:10:10.280Z,11.00
2024-02-06T18:12:38.072Z,11.00
2024-02-06T18:15:06.481Z,11.10
2024-02-06T18:17:33.888Z,11.10
2024-02-06T18:20:01.357Z,11.00
2024-02-06T18:22:28.851Z,11.10
2024-02-06T18:24:57.543Z,11.10
2024-02-06T18:27:25.054Z,11.10
2024-02-06T18:29:52.469Z,11.10
2024-02-06T18:32:21.478Z,11.10
2024-02-06T18:34:48.959Z,11.00
2024-02-06T18:37:16.467Z,11.10
2024-02-06T18:39:43.863Z,11.10
2024-02-06T18:42:12.443Z,11.10
2024-02-06T18:44:40.880Z,11.00
2024-02-06T18:47:09.057Z,11.00
2024-02-06T18:49:37.589Z,11.00
2024-02-06T18:52:05.338Z,11.00
2024-02-06T18:54:34.238Z,11.00
2024-02-06T18:57:01.626Z,11.00
2024-02-06T18:59:30.337Z,11.10
2024-02-06T19:01:57.772Z,11.10
2024-02-06T19:04:25.164Z,11.00
2024-02-06T19:06:57.362Z,11.00
2024-02-06T19:09:27.981Z,11.10
2024-02-06T19:11:56.237Z,11.10
2024-02-06T19:14:23.817Z,11.00
2024-02-06T19:16:52.622Z,11.00
2024-02-06T19:19:20.169Z,11.10
2024-02-06T19:21:48.274Z,11.10
2024-02-06T19:24:16.153Z,11.00
2024-02-06T19:26:46.748Z,11.00
2024-02-06T19:29:14.216Z,11.00
2024-02-06T19:31:42.174Z,11.00
2024-02-06T19:34:12.729Z,11.00
2024-02-06T19:36:41.745Z,11.00
2024-02-06T19:39:10.360Z,11.00
2024-02-06T19:41:37.716Z,11.00
2024-02-06T19:44:05.490Z,11.00
2024-02-06T19:46:32.933Z,11.00
2024-02-06T19:49:00.311Z,11.00
2024-02-06T19:51:29.185Z,11.10
2024-02-06T19:53:56.688Z,11.00
2024-02-06T19:56:24.392Z,11.00
2024-02-06T19:58:51.970Z,11.00
2024-02-06T20:01:24.598Z,11.00
2024-02-06T20:03:52.349Z,11.00
2024-02-06T20:06:19.766Z,11.00
2024-02-06T20:08:51.611Z,11.00
2024-02-06T20:11:19.774Z,11.00
2024-02-06T20:13:47.244Z,11.00
2024-02-06T20:16:14.705Z,10.90
2024-02-06T20:18:42.164Z,11.00
2024-02-06T20:21:09.535Z,11.00
2024-02-06T20:23:39.627Z,11.00
2024-02-06T20:26:08.413Z,11.00
2024-02-06T20:28:35.966Z,10.90
2024-02-06T20:31:04.872Z,10.90
2024-02-06T20:33:32.423Z,11.00
2024-02-06T20:36:00.278Z,11.00
2024-02-06T20:38:27.971Z,11.00
2024-02-06T20:40:55.322Z,11.00
2024-02-06T20:43:24.015Z,10.90
2024-02-06T20:45:51.356Z,10.90
2024-02-06T20:48:20.776Z,10.90
2024-02-06T20:50:48.475Z,10.90
2024-02-06T20:53:17.220Z,10.80
2024-02-06T20:55:44.602Z,10.80
2024-02-06T20:58:12.073Z,10.80
2024-02-06T21:00:40.875Z,10.80
2024-02-06T21:03:08.291Z,10.80
2024-02-06T21:05:39.509Z,10.80
2024-02-06T21:08:07.822Z,10.80
2024-02-06T21:10:36.761Z,10.70
2024-02-06T21:13:04.747Z,10.70
2024-02-06T21:15:32.281Z,10.70
2024-02-06T21:18:01.021Z,10.70
2024-02-06T21:20:28.594Z,10.70
2024-02-06T21:22:55.956Z,10.60
2024-02-06T21:25:23.538Z,10.60
2024-02-06T21:27:50.978Z,10.60
2024-02-06T21:30:18.478Z,10.60
2024-02-06T21:32:45.858Z,10.50
2024-02-06T21:35:14.675Z,10.50
2024-02-06T21:37:42.151Z,10.50
2024-02-06T21:40:11.386Z,10.50
2024-02-06T21:42:41.147Z,10.40
2024-02-06T21:45:10.157Z,10.40
2024-02-06T21:47:41.008Z,10.40
2024-02-06T21:50:10.144Z,10.30
2024-02-06T21:52:39.394Z,10.30
2024-02-06T21:55:11.250Z,10.30
2024-02-06T21:57:40.227Z,10.30
2024-02-06T22:00:08.599Z,10.40
2024-02-06T22:02:35.964Z,10.40
2024-02-06T22:05:03.447Z,10.40
2024-02-06T22:07:31.031Z,10.30
2024-02-06T22:09:59.824Z,10.30
2024-02-06T22:12:27.081Z,10.30
2024-02-06T22:14:54.605Z,10.20
2024-02-06T22:17:21.998Z,10.20
2024-02-06T22:19:51.133Z,10.20
2024-02-06T22:22:19.024Z,10.30
2024-02-06T22:24:46.718Z,10.30
2024-02-06T22:27:17.260Z,10.20
2024-02-06T22:29:45.423Z,10.30
2024-02-06T22:32:12.720Z,10.20
2024-02-06T22:34:40.202Z,10.20
2024-02-06T22:37:08.946Z,10.20
2024-02-06T22:39:39.301Z,10.20
2024-02-06T22:42:08.008Z,10.20
2024-02-06T22:44:36.865Z,10.20
2024-02-06T22:47:04.722Z,10.20
2024-02-06T22:49:32.411Z,10.10
2024-02-06T22:51:59.767Z,10.10
2024-02-06T22:54:27.163Z,10.00
2024-02-06T22:56:54.439Z,10.00
2024-02-06T22:59:22.443Z,10.00
2024-02-06T23:01:51.275Z,9.90
2024-02-06T23:04:19.049Z,9.90
2024-02-06T23:06:46.744Z,9.90
2024-02-06T23:09:14.727Z,9.80
2024-02-06T23:11:42.094Z,9.80
2024-02-06T23:14:09.454Z,9.80
2024-02-06T23:16:37.327Z,9.90
2024-02-06T23:19:06.217Z,9.80
2024-02-06T23:21:36.466Z,9.80
2024-02-06T23:24:04.195Z,9.80
2024-02-06T23:26:31.531Z,9.80
2024-02-06T23:28:59.017Z,9.80
2024-02-06T23:31:26.401Z,9.70
2024-02-06T23:33:53.686Z,9.80
2024-02-06T23:36:22.314Z,9.80
2024-02-06T23:39:03.753Z,9.70
2024-02-06T23:41:36.826Z,9.70
2024-02-06T23:44:04.254Z,9.70
2024-02-06T23:46:31.610Z,9.70
2024-02-06T23:49:00.440Z,9.70
2024-02-06T23:51:30.332Z,9.60
2024-02-06T23:53:57.665Z,9.50
2024-02-06T23:56:25.447Z,9.50
2024-02-06T23:58:52.775Z,9.50
